Time;durP1;ratioP1;P1;durP2;ratioP2;P2;SDS_P1;SDS_P2;PMS_P1;PMS_P2;Temp;Humidity;BMP_temperature;BMP_pressure;BME280_temperature;BME280_humidity;BME280_pressure;Samples;Min_cycle;Max_cycle;Signal;HPM_P1;HPM_P2
2023/01/13 06:12:36;;;;;;;;;;;;;;;9.38;73.10;97500.53;5741454;24;20296;-65
2023/01/13 06:15:01;;;;;;;;;;;;;;;9.45;72.78;97507.00;4872286;29;19928;-65
2023/01/13 06:17:27;;;;;;;;;;;;;;;9.54;73.05;97497.63;4857038;29;19931;-66
2023/01/13 06:19:52;;;;;;;;;;;;;;;9.50;69.88;97499.63;4858256;29;19916;-66
2023/01/13 06:22:20;;;;;;;;;;;;;;;9.45;68.97;97501.75;4857267;29;19920;-67
2023/01/13 06:24:46;;;;;;;;;;;;;;;9.35;69.24;97500.78;4856515;29;20000;-67
2023/01/13 06:27:11;;;;;;;;;;;;;;;9.25;69.20;97496.22;4848772;29;19920;-66
2023/01/13 06:29:36;;;;;;;;;;;;;;;9.17;69.82;97492.50;4854591;29;19944;-66
2023/01/13 06:32:02;;;;;;;;;;;;;;;9.11;69.96;97498.19;4854798;29;20436;-66
2023/01/13 06:34:27;;;;;;;;;;;;;;;9.07;70.60;97494.97;4856445;29;19920;-66
2023/01/13 06:36:52;;;;;;;;;;;;;;;9.07;70.37;97494.13;4854781;29;19920;-66
2023/01/13 06:39:18;;;;;;;;;;;;;;;9.06;70.49;97490.69;4859241;29;19920;-66
2023/01/13 06:44:28;;;;;;;;;;;;;;;8.95;70.42;97496.72;4858450;29;20004;-66
2023/01/13 06:46:53;;;;;;;;;;;;;;;8.90;70.01;97500.59;4856535;29;19960;-66
2023/01/13 06:49:18;;;;;;;;;;;;;;;8.89;70.30;97509.41;4858544;29;20013;-67
2023/01/13 06:51:43;;;;;;;;;;;;;;;8.83;70.33;97504.63;4858381;29;19943;-66
2023/01/13 06:54:09;;;;;;;;;;;;;;;8.83;70.12;97499.38;4856877;29;19924;-66
2023/01/13 06:56:34;;;;;;;;;;;;;;;8.79;70.07;97510.06;4855007;29;19924;-66
2023/01/13 06:58:59;;;;;;;;;;;;;;;8.79;69.57;97507.44;4854440;29;20392;-65
2023/01/13 07:01:24;;;;;;;;;;;;;;;8.85;69.69;97502.72;4854589;29;20419;-64
2023/01/13 07:03:50;;;;;;;;;;;;;;;8.82;69.29;97508.19;4855805;29;20269;-67
2023/01/13 07:06:15;;;;;;;;;;;;;;;8.92;68.75;97509.19;4854607;29;19928;-65
2023/01/13 07:08:40;;;;;;;;;;;;;;;8.86;69.13;97505.22;4854349;29;19916;-66
2023/01/13 07:11:06;;;;;;;;;;;;;;;8.85;69.15;97507.97;4855873;29;19972;-66
2023/01/13 07:16:16;;;;;;;;;;;;;;;8.78;69.20;97516.25;4855222;29;19927;-66
2023/01/13 07:18:42;;;;;;;;;;;;;;;8.79;69.02;97509.22;4859204;29;20341;-66
2023/01/13 07:21:07;;;;;;;;;;;;;;;8.77;69.49;97511.97;4855042;29;20299;-66
2023/01/13 07:23:33;;;;;;;;;;;;;;;8.75;69.80;97516.47;4854910;29;20281;-66
2023/01/13 07:25:59;;;;;;;;;;;;;;;8.70;69.07;97509.88;4854700;29;19927;-65
2023/01/13 07:28:24;;;;;;;;;;;;;;;8.72;69.35;97503.59;4856007;29;19923;-67
2023/01/13 07:30:49;;;;;;;;;;;;;;;8.74;69.06;97501.72;4859288;29;20019;-66
2023/01/13 07:33:14;;;;;;;;;;;;;;;8.74;69.09;97495.63;4857247;29;19924;-67
2023/01/13 07:35:40;;;;;;;;;;;;;;;8.75;69.28;97490.31;4845416;29;19920;-67
2023/01/13 07:38:05;;;;;;;;;;;;;;;8.75;69.03;97497.34;4858000;29;19980;-66
2023/01/13 07:40:30;;;;;;;;;;;;;;;8.70;69.18;97504.66;4860679;29;19921;-67
2023/01/13 07:45:39;;;;;;;;;;;;;;;8.68;68.63;97507.41;4857552;29;20031;-67
2023/01/13 07:48:04;;;;;;;;;;;;;;;8.71;69.19;97498.50;4842580;29;20436;-65
2023/01/13 07:50:30;;;;;;;;;;;;;;;8.74;68.92;97506.09;4858515;29;20361;-65
2023/01/13 07:52:58;;;;;;;;;;;;;;;8.74;68.88;97509.56;4859494;29;19920;-64
2023/01/13 07:55:23;;;;;;;;;;;;;;;8.73;68.59;97518.34;4861285;29;19923;-66
2023/01/13 07:57:48;;;;;;;;;;;;;;;8.72;68.80;97497.56;4861124;29;19920;-64
2023/01/13 08:00:14;;;;;;;;;;;;;;;8.74;68.65;97496.50;4860696;29;19916;-64
2023/01/13 08:02:39;;;;;;;;;;;;;;;8.76;68.84;97493.75;4859914;29;20397;-64
2023/01/13 08:05:05;;;;;;;;;;;;;;;8.71;68.67;97512.41;4860195;29;19931;-65
2023/01/13 08:07:30;;;;;;;;;;;;;;;8.53;69.72;97516.31;4860993;29;20325;-64
2023/01/13 08:09:55;;;;;;;;;;;;;;;8.64;68.72;97511.19;4860874;29;19924;-64
2023/01/13 08:15:05;;;;;;;;;;;;;;;8.66;68.65;97506.66;4847782;29;20349;-64
2023/01/13 08:17:30;;;;;;;;;;;;;;;8.69;68.90;97503.00;4861060;29;19934;-65
2023/01/13 08:19:56;;;;;;;;;;;;;;;8.77;68.42;97503.25;4861956;29;19923;-65
2023/01/13 08:22:21;;;;;;;;;;;;;;;8.72;68.75;97508.00;4861333;29;19998;-66
2023/01/13 08:24:46;;;;;;;;;;;;;;;8.65;68.97;97507.63;4859667;29;20011;-65
2023/01/13 08:27:12;;;;;;;;;;;;;;;8.73;68.61;97502.66;4858672;29;19945;-66
2023/01/13 08:29:37;;;;;;;;;;;;;;;8.71;69.02;97494.09;4858925;29;19920;-65
2023/01/13 08:32:02;;;;;;;;;;;;;;;8.75;68.88;97494.72;4861554;29;19916;-66
2023/01/13 08:34:27;;;;;;;;;;;;;;;8.80;68.99;97500.44;4859822;29;20371;-67
2023/01/13 08:36:53;;;;;;;;;;;;;;;8.82;69.82;97505.56;4858029;29;19957;-66
2023/01/13 08:39:18;;;;;;;;;;;;;;;8.80;69.81;97511.72;4859776;29;19972;-65
2023/01/13 08:41:57;;;;;;;;;;;;;;;8.84;70.10;97512.34;4860855;29;19920;-66
2023/01/13 08:44:22;;;;;;;;;;;;;;;8.91;69.43;97507.50;4860286;29;20372;-65
2023/01/13 08:46:48;;;;;;;;;;;;;;;9.00;70.27;97512.06;4852474;29;19931;-65
2023/01/13 08:49:13;;;;;;;;;;;;;;;9.00;70.99;97497.19;4858456;29;19945;-66
2023/01/13 08:51:38;;;;;;;;;;;;;;;8.96;71.29;97510.63;4859251;29;20300;-66
2023/01/13 08:54:03;;;;;;;;;;;;;;;8.99;71.32;97511.22;4860391;29;20277;-65
2023/01/13 08:56:28;;;;;;;;;;;;;;;8.96;71.43;97515.84;4860044;29;20352;-65
2023/01/13 08:58:56;;;;;;;;;;;;;;;8.94;71.50;97523.78;4855402;29;20370;-66
2023/01/13 09:01:21;;;;;;;;;;;;;;;8.97;71.51;97528.81;4860225;29;19968;-66
2023/01/13 09:03:47;;;;;;;;;;;;;;;8.98;71.74;97527.03;4860675;29;19947;-66
2023/01/13 09:06:12;;;;;;;;;;;;;;;8.96;71.13;97518.47;4860438;29;19920;-67
2023/01/13 09:08:37;;;;;;;;;;;;;;;8.87;71.79;97521.75;4855888;29;19920;-67
2023/01/13 09:13:10;;;;;;;;;;;;;;;8.90;71.94;97524.97;4858969;29;19923;-66
2023/01/13 09:13:47;;;;;;;;;;;;;;;9.05;72.40;97530.88;4859887;29;19921;-66
2023/01/13 09:16:13;;;;;;;;;;;;;;;9.07;73.26;97528.97;4853376;29;19926;-66
2023/01/13 09:18:38;;;;;;;;;;;;;;;9.09;73.37;97534.94;4858402;29;19920;-66
2023/01/13 09:21:03;;;;;;;;;;;;;;;9.12;73.42;97536.47;4858114;29;19920;-66
2023/01/13 09:23:28;;;;;;;;;;;;;;;9.10;73.26;97541.84;4857907;29;20007;-66
2023/01/13 09:25:53;;;;;;;;;;;;;;;9.06;73.95;97550.03;4860770;29;19920;-66
2023/01/13 09:28:19;;;;;;;;;;;;;;;9.18;73.21;97549.94;4858573;29;19992;-67
2023/01/13 09:30:44;;;;;;;;;;;;;;;9.16;74.25;97559.72;4859575;29;19923;-68
2023/01/13 09:35:56;;;;;;;;;;;;;;;9.15;76.72;97572.88;4856221;29;19927;-66
2023/01/13 09:38:22;;;;;;;;;;;;;;;9.08;78.12;97575.09;4857625;29;20385;-66
2023/01/13 09:40:47;;;;;;;;;;;;;;;9.03;78.65;97572.00;4860918;29;19940;-67
2023/01/13 09:46:00;;;;;;;;;;;;;;;8.77;80.86;97590.41;4856688;29;20395;-66
2023/01/13 09:48:29;;;;;;;;;;;;;;;8.65;81.93;97622.63;4858445;29;19924;-67
2023/01/13 09:51:19;;;;;;;;;;;;;;;8.57;83.16;97651.09;4859083;29;19920;-64
2023/01/13 09:53:54;;;;;;;;;;;;;;;8.44;84.26;97638.03;4842523;29;19960;-65
2023/01/13 09:56:19;;;;;;;;;;;;;;;8.38;84.66;97622.78;4855656;29;19927;-66
2023/01/13 09:58:45;;;;;;;;;;;;;;;8.37;84.67;97625.47;4858043;29;19928;-66
2023/01/13 10:01:10;;;;;;;;;;;;;;;8.36;85.19;97631.63;4858180;29;19924;-68
2023/01/13 10:03:35;;;;;;;;;;;;;;;8.28;85.78;97635.59;4858273;29;19916;-67
2023/01/13 10:06:05;;;;;;;;;;;;;;;8.23;86.01;97632.47;4858022;29;20015;-66
2023/01/13 10:08:32;;;;;;;;;;;;;;;8.25;86.58;97642.81;4857606;29;19943;-66
2023/01/13 10:13:13;;;;;;;;;;;;;;;8.19;87.15;97646.69;4858893;29;19968;-66
2023/01/13 10:13:57;;;;;;;;;;;;;;;8.17;87.84;97648.56;4853103;29;20020;-65
2023/01/13 10:16:40;;;;;;;;;;;;;;;8.20;88.34;97622.22;4857746;29;19921;-66
2023/01/13 10:19:22;;;;;;;;;;;;;;;8.24;88.00;97633.31;4853316;29;19935;-66
2023/01/13 10:21:48;;;;;;;;;;;;;;;8.26;87.80;97634.03;4858828;29;20338;-67
2023/01/13 10:24:16;;;;;;;;;;;;;;;8.30;87.52;97648.56;4854157;29;20452;-67
2023/01/13 10:27:01;;;;;;;;;;;;;;;8.25;87.77;97640.19;4856290;29;20644;-66
2023/01/13 10:29:26;;;;;;;;;;;;;;;8.22;88.39;97637.78;4859928;29;19921;-65
2023/01/13 10:31:52;;;;;;;;;;;;;;;8.26;87.73;97642.72;4858581;29;19920;-65
2023/01/13 10:34:18;;;;;;;;;;;;;;;8.27;86.95;97644.38;4858506;29;20011;-65
2023/01/13 10:36:59;;;;;;;;;;;;;;;8.25;87.23;97645.41;4837143;29;20015;-66
2023/01/13 10:39:25;;;;;;;;;;;;;;;8.23;86.59;97648.16;4857528;29;20003;-66
2023/01/13 10:41:59;;;;;;;;;;;;;;;8.23;85.95;97640.31;4859688;29;20080;-65
2023/01/13 10:44:24;;;;;;;;;;;;;;;8.20;84.44;97645.75;4857984;29;20288;-64
2023/01/13 10:46:50;;;;;;;;;;;;;;;8.21;84.18;97650.00;4857561;29;19929;-66
2023/01/13 10:49:21;;;;;;;;;;;;;;;8.16;84.17;97641.66;4858178;29;19924;-65
2023/01/13 10:51:47;;;;;;;;;;;;;;;8.19;84.73;97633.63;4859259;29;20011;-65
2023/01/13 10:54:12;;;;;;;;;;;;;;;8.25;84.59;97625.34;4858311;29;20011;-65
2023/01/13 10:56:37;;;;;;;;;;;;;;;8.31;84.35;97622.31;4857161;29;20023;-65
2023/01/13 10:59:12;;;;;;;;;;;;;;;8.43;83.67;97625.06;4831334;29;20373;-65
2023/01/13 11:01:37;;;;;;;;;;;;;;;8.51;82.49;97631.44;4849627;29;19927;-63
2023/01/13 11:04:02;;;;;;;;;;;;;;;8.59;82.20;97632.69;4858121;29;19916;-66
2023/01/13 11:06:28;;;;;;;;;;;;;;;8.72;81.86;97631.72;4856052;29;19927;-66
2023/01/13 11:08:57;;;;;;;;;;;;;;;8.88;82.04;97638.47;4857437;29;20308;-66
2023/01/13 11:11:42;;;;;;;;;;;;;;;8.98;82.23;97629.03;4857433;29;19951;-64
2023/01/13 11:14:35;;;;;;;;;;;;;;;9.04;81.85;97625.97;4843657;29;20061;-66
2023/01/13 11:17:01;;;;;;;;;;;;;;;9.12;81.43;97625.44;4854811;29;20000;-66
2023/01/13 11:19:27;;;;;;;;;;;;;;;9.22;81.30;97626.44;4859413;29;19916;-66
2023/01/13 11:22:10;;;;;;;;;;;;;;;9.37;80.48;97637.59;4861731;29;19951;-66
2023/01/13 11:24:46;;;;;;;;;;;;;;;9.50;80.04;97630.53;4858572;29;19917;-67
2023/01/13 11:27:15;;;;;;;;;;;;;;;9.56;79.56;97635.28;4862842;29;19920;-66
2023/01/13 11:29:53;;;;;;;;;;;;;;;9.66;79.51;97636.28;4860300;29;20015;-67
2023/01/13 11:32:18;;;;;;;;;;;;;;;9.84;77.58;97633.25;4861853;29;20384;-66
2023/01/13 11:34:44;;;;;;;;;;;;;;;9.89;77.75;97625.91;4859572;29;19916;-66
2023/01/13 11:37:22;;;;;;;;;;;;;;;9.79;77.73;97633.59;4859859;29;20015;-67
2023/01/13 11:40:08;;;;;;;;;;;;;;;9.51;77.08;97638.25;4862607;29;19916;-67
2023/01/13 11:42:45;;;;;;;;;;;;;;;9.36;77.02;97626.31;4859622;29;20340;-65
2023/01/13 11:45:16;;;;;;;;;;;;;;;9.18;77.74;97633.66;4860599;29;19984;-66
2023/01/13 11:47:42;;;;;;;;;;;;;;;9.10;79.03;97632.56;4861262;29;20003;-65
2023/01/13 11:50:34;;;;;;;;;;;;;;;9.14;79.17;97640.06;4860639;29;20408;-67
2023/01/13 11:53:17;;;;;;;;;;;;;;;9.16;79.13;97640.81;4855423;29;20268;-64
2023/01/13 11:55:45;;;;;;;;;;;;;;;9.20;78.93;97644.88;4860227;29;19916;-64
2023/01/13 11:58:29;;;;;;;;;;;;;;;9.42;78.48;97644.16;4855534;29;19924;-65
2023/01/13 12:01:01;;;;;;;;;;;;;;;9.61;78.00;97635.81;4860362;29;20008;-67
2023/01/13 12:03:34;;;;;;;;;;;;;;;9.76;77.01;97641.69;4860753;29;19931;-66
2023/01/13 12:06:18;;;;;;;;;;;;;;;9.72;74.72;97651.56;4841835;29;20410;-65
2023/01/13 12:08:55;;;;;;;;;;;;;;;9.95;73.67;97641.16;4851962;29;20011;-65
2023/01/13 12:11:23;;;;;;;;;;;;;;;10.04;74.56;97647.47;4859639;29;19968;-68
2023/01/13 12:14:09;;;;;;;;;;;;;;;10.01;73.68;97651.16;4859720;29;19955;-65
2023/01/13 12:16:34;;;;;;;;;;;;;;;9.88;74.15;97656.50;4849704;29;19920;-66
2023/01/13 12:19:18;;;;;;;;;;;;;;;9.90;74.39;97653.75;4860046;29;20288;-66
2023/01/13 12:21:49;;;;;;;;;;;;;;;9.89;74.66;97654.72;4862166;29;20380;-66
2023/01/13 12:24:28;;;;;;;;;;;;;;;9.87;74.40;97656.59;4858813;29;19919;-66
2023/01/13 12:26:55;;;;;;;;;;;;;;;9.76;74.46;97657.41;4859191;29;20023;-67
2023/01/13 12:29:23;;;;;;;;;;;;;;;9.73;74.23;97650.59;4837571;29;19946;-66
2023/01/13 12:31:48;;;;;;;;;;;;;;;9.63;73.85;97656.63;4859909;29;20408;-66
2023/01/13 12:34:29;;;;;;;;;;;;;;;9.57;73.29;97644.84;4854263;29;19963;-68
2023/01/13 12:37:13;;;;;;;;;;;;;;;9.43;73.27;97640.59;4859549;29;19949;-67
2023/01/13 12:39:48;;;;;;;;;;;;;;;9.32;73.18;97645.75;4858944;29;19920;-67
2023/01/13 12:45:09;;;;;;;;;;;;;;;9.23;74.47;97636.81;4858721;29;19926;-68
2023/01/13 12:47:38;;;;;;;;;;;;;;;9.35;74.65;97636.88;4856188;29;19932;-65
2023/01/13 12:50:21;;;;;;;;;;;;;;;9.38;74.63;97644.50;4857971;29;19923;-65
2023/01/13 12:52:47;;;;;;;;;;;;;;;9.30;74.05;97639.00;4852911;29;20384;-65
2023/01/13 12:55:13;;;;;;;;;;;;;;;9.24;74.03;97641.09;4853369;29;19931;-66
2023/01/13 12:57:39;;;;;;;;;;;;;;;9.15;75.11;97647.00;4858045;29;19928;-67
2023/01/13 13:00:04;;;;;;;;;;;;;;;9.13;74.55;97650.66;4858673;29;20308;-67
2023/01/13 13:02:33;;;;;;;;;;;;;;;9.15;73.69;97644.38;4860787;29;19923;-67
2023/01/13 13:05:00;;;;;;;;;;;;;;;9.11;73.97;97656.00;4859113;29;19920;-67
2023/01/13 13:07:30;;;;;;;;;;;;;;;9.09;73.87;97663.13;4859980;29;19932;-68
2023/01/13 13:10:00;;;;;;;;;;;;;;;9.04;74.11;97667.84;4859076;29;20516;-69
2023/01/13 13:15:19;;;;;;;;;;;;;;;8.82;74.10;97659.84;4855936;29;20004;-67
2023/01/13 13:17:59;;;;;;;;;;;;;;;8.76;75.34;97679.41;4858877;29;19924;-68
2023/01/13 13:20:43;;;;;;;;;;;;;;;8.73;74.12;97677.84;4858883;29;19923;-67
2023/01/13 13:23:25;;;;;;;;;;;;;;;8.72;74.95;97670.94;4854530;29;20019;-65
2023/01/13 13:26:03;;;;;;;;;;;;;;;8.64;74.07;97678.50;4843202;29;19924;-66
2023/01/13 13:28:31;;;;;;;;;;;;;;;8.54;73.91;97683.50;4859626;29;19916;-67
2023/01/13 13:31:04;;;;;;;;;;;;;;;8.51;74.28;97675.03;4858786;29;19924;-65
2023/01/13 13:33:48;;;;;;;;;;;;;;;8.53;74.70;97674.00;4859334;29;19922;-66
2023/01/13 13:36:32;;;;;;;;;;;;;;;8.50;75.98;97682.06;4855598;29;20179;-66
2023/01/13 13:48:19;;;;;;;;;;;;;;;8.39;78.10;97702.00;4854120;29;19932;-67
2023/01/13 13:50:48;;;;;;;;;;;;;;;8.35;77.89;97714.41;4859876;29;19920;-66
2023/01/13 13:53:13;;;;;;;;;;;;;;;8.34;79.03;97712.75;4858859;29;19916;-67
2023/01/13 13:55:38;;;;;;;;;;;;;;;8.32;78.60;97718.06;4860101;29;19968;-65
2023/01/13 13:58:04;;;;;;;;;;;;;;;8.25;78.48;97719.41;4859093;29;19927;-68
2023/01/13 14:00:30;;;;;;;;;;;;;;;8.32;78.67;97730.28;4858447;29;19920;-67
2023/01/13 14:02:57;;;;;;;;;;;;;;;8.40;78.86;97725.44;4854360;29;19920;-67
2023/01/13 14:05:22;;;;;;;;;;;;;;;8.39;78.40;97728.97;4857310;29;20353;-67
2023/01/13 14:07:48;;;;;;;;;;;;;;;8.36;79.34;97731.75;4859953;29;19916;-65
2023/01/13 14:10:15;;;;;;;;;;;;;;;8.39;78.69;97731.56;4856954;29;19920;-65
2023/01/13 14:12:40;;;;;;;;;;;;;;;8.37;78.79;97737.84;4858801;29;20411;-66
2023/01/13 14:15:21;;;;;;;;;;;;;;;8.38;76.23;97735.13;4858221;29;19979;-64
2023/01/13 14:17:46;;;;;;;;;;;;;;;8.36;77.13;97731.75;4856633;29;20349;-66
2023/01/13 14:20:13;;;;;;;;;;;;;;;8.39;75.76;97731.56;4859111;29;19920;-65
2023/01/13 14:22:38;;;;;;;;;;;;;;;8.51;73.17;97724.69;4859001;29;19916;-66
2023/01/13 14:25:19;;;;;;;;;;;;;;;8.59;72.87;97727.63;4857201;29;20380;-66
2023/01/13 14:27:44;;;;;;;;;;;;;;;8.67;71.47;97725.34;4858298;29;19917;-66
2023/01/13 14:30:10;;;;;;;;;;;;;;;8.80;70.53;97730.53;4859972;29;19971;-66
2023/01/13 14:32:36;;;;;;;;;;;;;;;8.98;69.94;97733.66;4858631;29;20006;-67
2023/01/13 14:35:04;;;;;;;;;;;;;;;9.04;68.19;97735.84;4856490;29;19928;-66
2023/01/13 14:37:39;;;;;;;;;;;;;;;8.90;68.91;97734.19;4857947;29;19927;-66
2023/01/13 14:40:04;;;;;;;;;;;;;;;8.95;69.24;97731.28;4858197;29;19920;-67
2023/01/13 14:42:30;;;;;;;;;;;;;;;8.96;68.74;97732.94;4857893;29;19939;-68
2023/01/13 14:44:55;;;;;;;;;;;;;;;8.92;68.29;97741.94;4858290;29;19916;-66
2023/01/13 14:47:22;;;;;;;;;;;;;;;8.81;68.01;97753.16;4859764;29;19924;-67
2023/01/13 14:50:01;;;;;;;;;;;;;;;8.66;66.97;97760.25;4844047;29;19924;-66
2023/01/13 14:52:27;;;;;;;;;;;;;;;8.51;66.90;97758.69;4870247;29;20227;-68
2023/01/13 14:54:52;;;;;;;;;;;;;;;8.31;66.67;97770.44;4861610;29;19916;-67
2023/01/13 14:57:24;;;;;;;;;;;;;;;8.20;68.34;97778.97;4861533;29;19967;-67
2023/01/13 15:00:09;;;;;;;;;;;;;;;8.17;68.25;97784.41;4862329;29;19999;-65
2023/01/13 15:02:38;;;;;;;;;;;;;;;8.18;68.02;97778.22;4860193;29;19928;-67
2023/01/13 15:05:18;;;;;;;;;;;;;;;8.12;68.69;97785.63;4855073;29;19920;-68
2023/01/13 15:07:50;;;;;;;;;;;;;;;8.12;69.22;97780.41;4863162;29;19916;-67
2023/01/13 15:10:18;;;;;;;;;;;;;;;8.01;70.21;97783.72;4861550;29;20384;-66
2023/01/13 15:12:44;;;;;;;;;;;;;;;7.93;71.05;97792.06;4861817;29;19928;-65
2023/01/13 15:15:24;;;;;;;;;;;;;;;7.93;70.95;97788.59;4861112;29;19920;-66
2023/01/13 15:17:49;;;;;;;;;;;;;;;7.91;71.75;97783.47;4855584;29;19942;-66
2023/01/13 15:20:19;;;;;;;;;;;;;;;8.04;72.79;97784.34;4861130;29;19919;-67
2023/01/13 15:22:44;;;;;;;;;;;;;;;8.01;73.28;97789.78;4862772;29;19956;-66
2023/01/13 15:25:09;;;;;;;;;;;;;;;7.93;73.63;97786.00;4862264;29;20321;-66
2023/01/13 15:27:35;;;;;;;;;;;;;;;7.82;73.47;97790.13;4861601;29;19932;-66
2023/01/13 15:30:00;;;;;;;;;;;;;;;7.75;73.42;97794.06;4861069;29;19921;-66
2023/01/13 15:32:25;;;;;;;;;;;;;;;7.69;73.76;97788.41;4861967;29;19920;-67
2023/01/13 15:34:52;;;;;;;;;;;;;;;7.58;74.22;97802.13;4861455;29;19999;-65
2023/01/13 15:37:18;;;;;;;;;;;;;;;7.43;75.28;97808.28;4862008;29;19939;-66
2023/01/13 15:39:43;;;;;;;;;;;;;;;7.38;75.16;97811.19;4861760;29;20349;-66
2023/01/13 15:47:39;;;;;;;;;;;;;;;7.24;73.81;97813.81;4861038;29;19927;-66
2023/01/13 15:50:04;;;;;;;;;;;;;;;7.20;73.81;97813.16;4857110;29;19979;-65
2023/01/13 15:52:29;;;;;;;;;;;;;;;7.14;73.20;97823.97;4859914;29;19985;-66
2023/01/13 15:54:55;;;;;;;;;;;;;;;7.13;73.14;97830.13;4860302;29;19916;-67
2023/01/13 15:57:26;;;;;;;;;;;;;;;7.07;72.70;97827.88;4860837;29;21284;-66
2023/01/13 15:59:53;;;;;;;;;;;;;;;8.79;89.57;97836.09;4860104;29;19923;-65
2023/01/13 16:02:19;;;;;;;;;;;;;;;9.94;64.92;97851.66;4860809;29;20472;-66
2023/01/13 16:04:44;;;;;;;;;;;;;;;9.23;64.02;97842.72;4860401;29;19940;-67
2023/01/13 16:07:11;;;;;;;;;;;;;;;8.69;65.93;97845.50;4860675;29;20007;-67
2023/01/13 16:09:37;;;;;;;;;;;;;;;8.37;66.59;97840.59;4862279;29;20475;-68
2023/01/13 16:12:02;;;;;;;;;;;;;;;7.94;67.12;97855.56;4861221;29;19920;-66
2023/01/13 16:14:28;;;;;;;;;;;;;;;7.61;68.12;97860.19;4861737;29;19924;-65
2023/01/13 16:16:53;;;;;;;;;;;;;;;7.44;69.34;97867.41;4854880;29;19928;-66
2023/01/13 16:19:18;;;;;;;;;;;;;;;7.31;69.99;97870.75;4860190;29;19927;-66
2023/01/13 16:21:44;;;;;;;;;;;;;;;7.15;70.66;97877.81;4858455;29;19920;-66
2023/01/13 16:24:09;;;;;;;;;;;;;;;7.02;70.13;97895.97;4861712;29;20003;-65
2023/01/13 16:26:36;;;;;;;;;;;;;;;6.98;70.59;97902.28;4859891;29;20308;-65
2023/01/13 16:29:01;;;;;;;;;;;;;;;6.99;70.22;97905.75;4854837;29;19928;-65
2023/01/13 16:31:30;;;;;;;;;;;;;;;6.99;69.79;97913.56;4855254;29;19927;-65
2023/01/13 16:33:55;;;;;;;;;;;;;;;6.88;70.33;97933.28;4860059;29;19927;-66
2023/01/13 16:36:21;;;;;;;;;;;;;;;6.81;69.30;97947.59;4840978;29;19916;-67
2023/01/13 16:38:46;;;;;;;;;;;;;;;6.80;70.09;97937.25;4851127;29;20008;-66
2023/01/13 16:41:12;;;;;;;;;;;;;;;6.77;70.17;97950.44;4860601;29;19916;-67
2023/01/13 16:43:37;;;;;;;;;;;;;;;6.79;70.40;97952.03;4857559;29;19927;-66
2023/01/13 16:46:08;;;;;;;;;;;;;;;6.71;71.29;97959.47;4860337;29;20067;-67
2023/01/13 16:48:33;;;;;;;;;;;;;;;6.78;70.72;97963.41;4858270;29;19924;-67
2023/01/13 16:50:59;;;;;;;;;;;;;;;6.81;70.37;97963.25;4860316;29;19934;-66
2023/01/13 16:53:24;;;;;;;;;;;;;;;6.78;69.42;97966.00;4860229;29;19920;-66
2023/01/13 16:55:49;;;;;;;;;;;;;;;6.83;69.85;97974.41;4858960;29;20023;-66
2023/01/13 16:58:18;;;;;;;;;;;;;;;6.74;70.11;97968.88;4857252;29;20294;-65
2023/01/13 17:00:47;;;;;;;;;;;;;;;6.71;70.37;97972.50;4858943;29;19935;-66
2023/01/13 17:03:12;;;;;;;;;;;;;;;6.57;70.62;97981.09;4860336;29;20002;-67
2023/01/13 17:05:39;;;;;;;;;;;;;;;6.48;71.04;97973.78;4859209;29;20053;-67
2023/01/13 17:08:04;;;;;;;;;;;;;;;6.44;71.27;97966.25;4860270;29;20544;-67
2023/01/13 17:10:29;;;;;;;;;;;;;;;6.40;72.00;97963.78;4857085;29;20010;-66
2023/01/13 17:12:54;;;;;;;;;;;;;;;6.42;71.82;97976.72;4859883;29;19927;-67
2023/01/13 17:15:20;;;;;;;;;;;;;;;6.39;72.15;97976.88;4860897;29;19920;-65
2023/01/13 17:17:50;;;;;;;;;;;;;;;6.41;72.48;97978.50;4860351;29;20024;-66
2023/01/13 17:20:17;;;;;;;;;;;;;;;6.37;71.96;97973.53;4858817;29;19936;-65
2023/01/13 17:22:42;;;;;;;;;;;;;;;6.38;71.92;97975.22;4860236;29;19920;-65
2023/01/13 17:25:09;;;;;;;;;;;;;;;6.32;72.53;97972.94;4860309;29;19972;-65
2023/01/13 17:27:34;;;;;;;;;;;;;;;6.34;72.77;97984.97;4857856;29;19923;-64
2023/01/13 17:29:59;;;;;;;;;;;;;;;6.35;72.80;97976.22;4857983;29;19916;-64
2023/01/13 17:32:24;;;;;;;;;;;;;;;6.31;73.27;97969.50;4859874;29;19920;-65
2023/01/13 17:34:49;;;;;;;;;;;;;;;6.21;74.10;97977.91;4857202;29;19916;-65
2023/01/13 17:37:15;;;;;;;;;;;;;;;6.23;74.24;97976.91;4859474;29;19930;-64
2023/01/13 17:39:42;;;;;;;;;;;;;;;6.22;74.08;97985.63;4857845;29;19926;-64
2023/01/13 17:42:07;;;;;;;;;;;;;;;6.17;74.19;97977.22;4853962;29;19920;-64
2023/01/13 17:44:32;;;;;;;;;;;;;;;6.23;74.52;97991.66;4853650;29;19917;-66
2023/01/13 17:46:58;;;;;;;;;;;;;;;6.23;74.45;97987.31;4859771;29;20428;-65
2023/01/13 17:49:23;;;;;;;;;;;;;;;6.21;74.67;97990.94;4858816;29;20395;-65
2023/01/13 17:51:49;;;;;;;;;;;;;;;6.19;74.99;97996.19;4859822;29;20396;-64
2023/01/13 17:54:15;;;;;;;;;;;;;;;6.21;74.99;97998.75;4857433;29;19917;-63
2023/01/13 17:56:40;;;;;;;;;;;;;;;6.22;74.70;98006.47;4858830;29;19920;-64
2023/01/13 17:59:05;;;;;;;;;;;;;;;6.25;74.39;98006.31;4856858;29;20035;-65
2023/01/13 18:01:31;;;;;;;;;;;;;;;6.29;74.33;98013.00;4857944;29;20381;-66
2023/01/13 18:04:00;;;;;;;;;;;;;;;6.33;74.43;98011.94;4856324;29;19951;-64
2023/01/13 18:06:25;;;;;;;;;;;;;;;6.37;74.08;98005.66;4860099;29;19924;-64
2023/01/13 18:08:50;;;;;;;;;;;;;;;6.39;73.70;98013.38;4858080;29;20369;-65
2023/01/13 18:11:19;;;;;;;;;;;;;;;6.46;72.85;98021.69;4860032;29;20022;-64
2023/01/13 18:13:45;;;;;;;;;;;;;;;6.48;72.71;98006.81;4857643;29;19920;-65
2023/01/13 18:16:11;;;;;;;;;;;;;;;6.49;71.95;98030.16;4858502;29;20316;-64
2023/01/13 18:18:37;;;;;;;;;;;;;;;6.51;72.19;98030.94;4856037;29;19928;-66
2023/01/13 18:29:04;;;;;;;;;;;;;;;6.59;71.88;98039.16;4856807;29;19963;-65
2023/01/13 18:31:29;;;;;;;;;;;;;;;6.61;71.66;98033.88;4857956;29;19963;-66
2023/01/13 18:33:55;;;;;;;;;;;;;;;6.57;72.30;98042.78;4859438;29;19971;-65
2023/01/13 18:36:20;;;;;;;;;;;;;;;6.55;72.68;98055.06;4858806;29;19971;-65
2023/01/13 18:38:45;;;;;;;;;;;;;;;6.49;73.14;98055.41;4859010;29;20372;-65
2023/01/13 18:43:54;;;;;;;;;;;;;;;6.43;73.01;98056.56;4856109;29;19943;-65
2023/01/13 18:46:20;;;;;;;;;;;;;;;6.38;73.58;98058.59;4857723;29;20395;-65
2023/01/13 18:48:45;;;;;;;;;;;;;;;6.37;73.23;98062.97;4856835;29;20311;-65
2023/01/13 18:51:10;;;;;;;;;;;;;;;6.37;73.31;98064.72;4856281;29;20563;-66
2023/01/13 18:53:36;;;;;;;;;;;;;;;6.34;73.92;98068.31;4857246;29;19928;-63
2023/01/13 18:56:04;;;;;;;;;;;;;;;6.30;73.30;98069.41;4856649;29;19920;-65
2023/01/13 18:58:31;;;;;;;;;;;;;;;6.30;73.28;98079.84;4856365;29;20444;-65
2023/01/13 19:01:00;;;;;;;;;;;;;;;6.30;73.67;98082.44;4857697;29;19924;-64
2023/01/13 19:03:25;;;;;;;;;;;;;;;6.31;73.75;98088.50;4857536;29;20415;-64
2023/01/13 19:05:51;;;;;;;;;;;;;;;6.32;73.93;98091.00;4858709;29;19920;-64
2023/01/13 19:08:16;;;;;;;;;;;;;;;6.30;73.26;98090.25;4859526;29;19920;-65
2023/01/13 19:10:42;;;;;;;;;;;;;;;6.32;73.52;98096.22;4857986;29;19928;-64
2023/01/13 19:13:08;;;;;;;;;;;;;;;6.31;74.08;98094.53;4855544;29;19924;-66
2023/01/13 19:15:34;;;;;;;;;;;;;;;6.36;73.29;98108.16;4858332;29;19923;-64
2023/01/13 19:18:00;;;;;;;;;;;;;;;6.35;73.50;98116.06;4855520;29;19924;-66
2023/01/13 19:20:25;;;;;;;;;;;;;;;6.31;73.72;98110.16;4854337;29;19920;-64
2023/01/13 19:22:53;;;;;;;;;;;;;;;6.35;73.33;98109.06;4858952;29;19934;-66
2023/01/13 19:25:18;;;;;;;;;;;;;;;6.40;73.49;98120.09;4854690;29;19920;-63
2023/01/13 19:27:43;;;;;;;;;;;;;;;6.40;73.88;98129.66;4853990;29;19988;-63
2023/01/13 19:30:11;;;;;;;;;;;;;;;6.46;73.23;98126.75;4859239;29;19994;-64
2023/01/13 19:32:36;;;;;;;;;;;;;;;6.49;73.59;98125.75;4858797;29;19920;-64
2023/01/13 19:35:01;;;;;;;;;;;;;;;6.47;73.37;98124.97;4862135;29;19996;-64
2023/01/13 19:37:32;;;;;;;;;;;;;;;6.51;72.72;98123.91;4861692;29;19928;-63
2023/01/13 19:39:57;;;;;;;;;;;;;;;6.49;73.34;98129.19;4853338;29;19924;-65
2023/01/13 19:45:26;;;;;;;;;;;;;;;6.48;73.57;98127.50;4858797;29;19931;-64
2023/01/13 19:47:51;;;;;;;;;;;;;;;6.50;73.80;98135.22;4859349;29;19935;-64
2023/01/13 19:50:16;;;;;;;;;;;;;;;6.50;73.72;98140.44;4861322;29;19920;-64
2023/01/13 19:52:43;;;;;;;;;;;;;;;6.49;73.24;98143.97;4861821;29;20308;-65
2023/01/13 19:55:10;;;;;;;;;;;;;;;6.48;73.02;98152.72;4860618;29;20443;-64
2023/01/13 19:57:35;;;;;;;;;;;;;;;6.49;72.69;98155.25;4862343;29;19985;-65
2023/01/13 20:00:01;;;;;;;;;;;;;;;6.49;73.34;98149.19;4858456;29;20385;-65
2023/01/13 20:02:26;;;;;;;;;;;;;;;6.58;73.18;98141.72;4862309;29;19926;-64
2023/01/13 20:04:54;;;;;;;;;;;;;;;6.56;73.45;98142.72;4860023;29;19943;-65